Time;durP1;ratioP1;P1;durP2;ratioP2;P2;SDS_P1;SDS_P2;PMS_P1;PMS_P2;Temp;Humidity;BMP_temperature;BMP_pressure;BME280_temperature;BME280_humidity;BME280_pressure;Samples;Min_cycle;Max_cycle;Signal;HPM_P1;HPM_P2
2023/08/21 00:01:34;;;;;;;6.75;4.15;;;25.10;99.90;;;;;;5105349;28;20195;-63
2023/08/21 00:04:01;;;;;;;5.53;4.60;;;25.00;99.90;;;;;;5094845;28;20297;-63
2023/08/21 00:06:28;;;;;;;6.10;4.80;;;25.00;99.90;;;;;;5084884;28;21019;-64
2023/08/21 00:08:55;;;;;;;12.30;4.95;;;25.00;99.90;;;;;;5084627;28;20210;-63
2023/08/21 00:11:23;;;;;;;6.40;4.68;;;25.00;99.90;;;;;;5085099;28;20255;-63
2023/08/21 00:13:50;;;;;;;7.35;5.45;;;25.00;99.90;;;;;;5084717;28;20270;-63
2023/08/21 00:16:18;;;;;;;6.05;5.47;;;25.00;99.90;;;;;;5084555;28;20234;-63
2023/08/21 00:18:45;;;;;;;6.15;5.32;;;25.00;99.90;;;;;;5084452;28;20665;-63
2023/08/21 00:21:12;;;;;;;7.25;5.72;;;25.00;99.90;;;;;;5089071;28;20878;-63
2023/08/21 00:23:39;;;;;;;6.57;5.93;;;25.00;99.90;;;;;;5097942;28;20198;-63
2023/08/21 00:26:06;;;;;;;6.18;5.78;;;25.00;99.90;;;;;;5105176;28;20251;-64
2023/08/21 00:28:34;;;;;;;7.18;6.50;;;25.00;99.90;;;;;;5105223;28;20297;-64
2023/08/21 00:31:02;;;;;;;6.68;5.78;;;25.00;99.90;;;;;;5104630;28;20288;-64
2023/08/21 00:33:29;;;;;;;7.40;6.32;;;25.00;99.90;;;;;;5099980;28;20202;-64
2023/08/21 00:35:56;;;;;;;7.32;6.63;;;25.00;99.90;;;;;;5105825;28;20890;-65
2023/08/21 00:38:24;;;;;;;6.55;6.05;;;25.00;99.90;;;;;;5108730;28;20671;-64
2023/08/21 00:40:50;;;;;;;7.28;6.78;;;25.00;99.90;;;;;;5108838;27;20206;-63
2023/08/21 00:43:17;;;;;;;6.75;6.18;;;24.90;99.90;;;;;;5088611;28;20242;-63
2023/08/21 00:45:47;;;;;;;8.98;6.55;;;24.90;99.90;;;;;;5092356;28;20298;-63
2023/08/21 00:48:15;;;;;;;7.35;6.65;;;24.90;99.90;;;;;;5107421;28;20204;-63
2023/08/21 00:50:42;;;;;;;7.20;6.35;;;24.90;99.90;;;;;;5103815;28;20206;-63
2023/08/21 00:53:10;;;;;;;6.82;6.32;;;24.90;99.90;;;;;;5088328;28;20282;-63
2023/08/21 00:55:37;;;;;;;6.22;5.78;;;24.90;99.90;;;;;;5088179;28;20234;-63
2023/08/21 00:58:05;;;;;;;6.57;6.07;;;24.90;99.90;;;;;;5088382;28;20214;-63
2023/08/21 01:00:32;;;;;;;6.40;5.90;;;24.80;99.90;;;;;;5104903;28;20321;-63
2023/08/21 01:03:00;;;;;;;6.88;5.45;;;24.90;99.90;;;;;;5108268;28;20202;-63
2023/08/21 01:05:27;;;;;;;6.43;5.78;;;24.90;99.90;;;;;;5108177;28;20558;-63
2023/08/21 01:08:01;;;;;;;6.65;6.05;;;24.80;99.90;;;;;;5108427;28;20293;-63
2023/08/21 01:10:40;;;;;;;6.65;6.03;;;24.80;99.90;;;;;;5107064;27;20608;-63
2023/08/21 01:13:15;;;;;;;6.55;5.95;;;24.80;99.90;;;;;;5128854;27;20764;-63
2023/08/21 01:15:43;;;;;;;6.53;5.93;;;24.80;99.90;;;;;;5129039;27;20217;-63
2023/08/21 01:18:12;;;;;;;6.07;5.50;;;24.80;99.90;;;;;;5129343;27;20300;-63
2023/08/21 01:20:40;;;;;;;8.65;5.93;;;24.80;99.90;;;;;;5123938;27;20230;-64
2023/08/21 01:23:07;;;;;;;6.70;5.82;;;24.80;99.90;;;;;;5106889;28;20430;-63
2023/08/21 01:25:35;;;;;;;7.38;6.07;;;24.80;99.90;;;;;;5108392;28;20282;-63
2023/08/21 01:28:02;;;;;;;7.13;6.05;;;24.80;99.90;;;;;;5108671;28;20208;-63
2023/08/21 01:30:32;;;;;;;8.20;6.63;;;24.80;99.90;;;;;;5108438;28;20919;-63
2023/08/21 01:33:05;;;;;;;6.63;6.03;;;24.80;99.90;;;;;;5108603;28;20206;-64
2023/08/21 01:35:34;;;;;;;6.75;6.15;;;24.80;99.90;;;;;;5107866;28;20824;-63
2023/08/21 01:38:02;;;;;;;8.50;6.05;;;24.80;99.90;;;;;;5100576;28;20214;-64
2023/08/21 01:40:29;;;;;;;7.50;6.43;;;24.80;99.90;;;;;;5087767;28;20207;-65
2023/08/21 01:42:57;;;;;;;6.88;6.32;;;24.80;99.90;;;;;;5093741;28;20728;-63
2023/08/21 01:45:24;;;;;;;8.65;6.88;;;24.80;99.90;;;;;;5107204;27;20259;-64
2023/08/21 01:47:51;;;;;;;7.05;6.40;;;24.60;99.90;;;;;;5101311;28;20210;-64
2023/08/21 01:50:18;;;;;;;7.35;6.72;;;24.70;99.90;;;;;;5087372;28;20297;-64
2023/08/21 01:52:45;;;;;;;7.50;6.80;;;24.60;99.90;;;;;;5087305;28;20249;-64
2023/08/21 01:55:12;;;;;;;7.85;7.05;;;24.70;99.90;;;;;;5087522;28;20230;-64
2023/08/21 01:57:39;;;;;;;7.45;6.75;;;24.70;99.90;;;;;;5101472;28;20210;-63
2023/08/21 02:00:09;;;;;;;10.68;7.25;;;24.70;99.90;;;;;;5107207;28;20234;-63
2023/08/21 02:02:36;;;;;;;7.32;6.72;;;24.70;99.90;;;;;;5107583;28;20763;-63
2023/08/21 02:05:03;;;;;;;8.50;6.72;;;24.60;99.90;;;;;;5089724;28;20899;-63
2023/08/21 02:07:30;;;;;;;7.30;6.70;;;24.50;99.90;;;;;;5087109;28;20209;-63
2023/08/21 02:09:57;;;;;;;9.68;7.25;;;24.50;99.90;;;;;;5095423;28;20285;-63
2023/08/21 02:12:24;;;;;;;7.75;7.00;;;24.60;99.90;;;;;;5127540;27;20213;-63
2023/08/21 02:14:51;;;;;;;7.35;6.80;;;24.50;99.90;;;;;;5124791;27;20237;-63
2023/08/21 02:17:19;;;;;;;7.80;6.88;;;24.50;99.90;;;;;;5087599;28;20205;-63
2023/08/21 02:19:46;;;;;;;7.22;6.63;;;24.50;99.90;;;;;;5086967;28;20769;-63
2023/08/21 02:22:13;;;;;;;7.50;6.82;;;24.50;99.90;;;;;;5088757;28;20776;-64
2023/08/21 02:24:39;;;;;;;7.47;6.88;;;24.50;99.90;;;;;;5092450;28;20203;-66
2023/08/21 02:27:06;;;;;;;7.07;6.38;;;24.60;99.90;;;;;;5087046;28;20238;-66
2023/08/21 02:29:33;;;;;;;7.63;6.80;;;24.60;99.90;;;;;;5086524;28;20960;-67
2023/08/21 02:32:00;;;;;;;7.90;7.20;;;24.50;99.90;;;;;;5091042;28;20208;-67
2023/08/21 02:34:28;;;;;;;8.30;7.47;;;24.50;99.90;;;;;;5093748;28;20232;-68
2023/08/21 02:36:55;;;;;;;8.30;7.60;;;24.50;99.90;;;;;;5085283;28;20323;-67
2023/08/21 02:39:22;;;;;;;8.93;7.30;;;24.40;99.90;;;;;;5084928;28;20310;-67
2023/08/21 02:41:49;;;;;;;8.15;7.22;;;24.40;99.90;;;;;;5085135;28;20217;-67
2023/08/21 02:44:16;;;;;;;11.60;7.22;;;24.40;99.90;;;;;;5084809;28;20315;-67
2023/08/21 02:46:42;;;;;;;8.80;7.90;;;24.30;99.90;;;;;;5085215;28;20287;-67
2023/08/21 02:49:09;;;;;;;8.27;7.55;;;24.30;99.90;;;;;;5085159;28;20287;-68
2023/08/21 02:51:38;;;;;;;7.80;7.10;;;24.30;99.90;;;;;;5089728;27;20309;-67
2023/08/21 02:54:05;;;;;;;7.80;7.13;;;24.20;99.90;;;;;;5089479;28;20211;-67
2023/08/21 02:56:31;;;;;;;7.70;7.05;;;24.20;99.90;;;;;;5083789;28;20960;-67
2023/08/21 02:58:58;;;;;;;8.02;7.30;;;24.30;99.90;;;;;;5086409;28;20230;-67
2023/08/21 03:01:25;;;;;;;8.02;7.32;;;24.30;99.90;;;;;;5084527;28;20818;-67
2023/08/21 03:03:52;;;;;;;8.48;7.60;;;24.30;99.90;;;;;;5084820;28;21046;-67
2023/08/21 03:06:19;;;;;;;7.82;7.00;;;24.30;99.90;;;;;;5085052;28;20243;-67
2023/08/21 03:08:47;;;;;;;7.55;6.95;;;24.30;99.90;;;;;;5086517;28;20253;-67
2023/08/21 03:11:14;;;;;;;8.68;7.43;;;24.30;99.90;;;;;;5096140;28;20314;-67
2023/08/21 03:13:41;;;;;;;7.45;6.75;;;24.30;99.90;;;;;;5106425;28;20209;-67
2023/08/21 03:16:07;;;;;;;8.30;7.43;;;24.30;99.90;;;;;;5106125;28;20265;-67
2023/08/21 03:18:54;;;;;;;7.32;6.63;;;24.30;99.90;;;;;;5106706;28;20205;-67
2023/08/21 03:21:22;;;;;;;7.70;7.00;;;24.40;99.90;;;;;;5106774;28;20576;-67
2023/08/21 03:23:51;;;;;;;7.53;6.95;;;24.30;99.90;;;;;;5105897;28;20796;-67
2023/08/21 03:26:18;;;;;;;7.35;6.80;;;24.30;99.90;;;;;;5106461;28;20209;-67
2023/08/21 03:28:45;;;;;;;7.63;6.93;;;24.30;99.90;;;;;;5106056;28;20301;-66
2023/08/21 03:31:12;;;;;;;7.50;6.78;;;24.40;99.90;;;;;;5096252;27;20206;-67
2023/08/21 03:33:39;;;;;;;7.45;6.68;;;24.30;99.90;;;;;;5085885;28;20293;-67
2023/08/21 03:36:06;;;;;;;7.90;7.13;;;24.30;99.90;;;;;;5085994;28;20230;-67
2023/08/21 03:38:33;;;;;;;8.10;7.20;;;24.30;99.90;;;;;;5085805;28;20301;-66
2023/08/21 03:41:01;;;;;;;8.23;7.50;;;24.30;99.90;;;;;;5093833;28;20214;-66
2023/08/21 03:43:29;;;;;;;8.07;7.43;;;24.30;99.90;;;;;;5105883;28;21088;-66
2023/08/21 03:45:56;;;;;;;8.18;7.47;;;24.30;99.90;;;;;;5106012;28;20289;-66
2023/08/21 03:48:23;;;;;;;8.43;7.63;;;24.30;99.90;;;;;;5105530;27;20932;-66
2023/08/21 03:50:50;;;;;;;8.43;7.60;;;24.20;99.90;;;;;;5086127;28;20207;-67
2023/08/21 03:53:17;;;;;;;8.10;7.30;;;24.20;99.90;;;;;;5085596;28;20209;-66
2023/08/21 03:55:44;;;;;;;8.35;7.65;;;24.20;99.90;;;;;;5085531;28;20237;-66
2023/08/21 03:58:13;;;;;;;8.07;7.38;;;24.20;99.90;;;;;;5085781;28;20301;-66
2023/08/21 04:00:40;;;;;;;8.38;7.50;;;24.20;99.90;;;;;;5084798;28;20239;-66
2023/08/21 04:03:07;;;;;;;8.45;7.60;;;24.10;99.90;;;;;;5085642;28;20639;-66
2023/08/21 04:05:34;;;;;;;8.60;7.05;;;24.00;99.90;;;;;;5085445;28;20230;-66
2023/08/21 04:08:00;;;;;;;8.63;7.07;;;23.80;99.90;;;;;;5085401;28;20253;-66
2023/08/21 04:10:27;;;;;;;10.35;7.68;;;23.80;99.90;;;;;;5092120;27;20201;-66
2023/08/21 04:12:54;;;;;;;8.10;7.35;;;23.70;99.90;;;;;;5126198;27;20354;-66
2023/08/21 04:15:22;;;;;;;8.20;7.55;;;23.60;99.90;;;;;;5126199;27;20228;-66
2023/08/21 04:17:49;;;;;;;8.07;7.28;;;23.70;99.90;;;;;;5126402;27;20221;-66
2023/08/21 04:20:16;;;;;;;8.30;7.50;;;23.70;99.90;;;;;;5126140;27;20209;-66
2023/08/21 04:22:43;;;;;;;8.38;7.78;;;23.70;99.90;;;;;;5119334;27;20288;-67
2023/08/21 04:25:11;;;;;;;8.15;7.32;;;23.70;99.90;;;;;;5105677;28;20308;-66
2023/08/21 04:27:38;;;;;;;7.93;7.13;;;23.70;99.90;;;;;;5090850;28;20213;-66
2023/08/21 04:30:06;;;;;;;8.43;7.72;;;23.80;99.90;;;;;;5085137;28;20290;-66
2023/08/21 04:32:34;;;;;;;8.15;7.43;;;23.70;99.90;;;;;;5085422;28;20210;-66
2023/08/21 04:35:01;;;;;;;8.77;7.30;;;23.70;99.90;;;;;;5085120;28;20206;-66
2023/08/21 04:37:28;;;;;;;8.30;7.60;;;23.60;99.90;;;;;;5085249;28;20248;-66
2023/08/21 04:39:55;;;;;;;7.65;6.95;;;23.60;99.90;;;;;;5085149;28;20202;-66
2023/08/21 04:42:22;;;;;;;8.43;7.63;;;23.60;99.90;;;;;;5124494;28;20301;-66
2023/08/21 04:44:49;;;;;;;8.43;7.50;;;23.70;99.90;;;;;;5113955;28;20234;-66
2023/08/21 04:47:23;;;;;;;7.53;6.82;;;23.70;99.90;;;;;;5084911;28;20699;-66
2023/08/21 04:49:52;;;;;;;7.60;6.90;;;23.60;99.90;;;;;;5085142;28;20286;-66
2023/08/21 04:52:19;;;;;;;7.78;7.05;;;23.60;99.90;;;;;;5084674;28;20206;-67
2023/08/21 04:54:45;;;;;;;8.43;7.57;;;23.60;99.90;;;;;;5084976;28;20202;-67
2023/08/21 04:57:12;;;;;;;8.15;7.38;;;23.60;99.90;;;;;;5084436;28;20941;-67
2023/08/21 04:59:39;;;;;;;8.57;7.40;;;23.60;99.90;;;;;;5084594;28;20321;-67
2023/08/21 05:02:06;;;;;;;9.98;7.10;;;23.60;99.90;;;;;;5084729;28;20221;-67
2023/08/21 05:04:33;;;;;;;8.68;7.88;;;23.70;99.90;;;;;;5084621;28;20318;-67
2023/08/21 05:07:02;;;;;;;7.70;7.05;;;23.70;99.90;;;;;;5084528;28;20666;-67
2023/08/21 05:09:28;;;;;;;7.82;7.22;;;23.70;99.90;;;;;;5084151;28;20293;-67
2023/08/21 05:11:56;;;;;;;8.43;7.63;;;23.70;99.90;;;;;;5116605;28;20289;-67
2023/08/21 05:14:23;;;;;;;10.60;7.57;;;23.70;99.90;;;;;;5125571;28;20304;-67
2023/08/21 05:16:50;;;;;;;8.38;7.55;;;23.70;99.90;;;;;;5125104;28;20237;-67
2023/08/21 05:19:17;;;;;;;8.77;7.30;;;23.80;99.90;;;;;;5126738;27;20212;-67
2023/08/21 05:21:44;;;;;;;8.18;7.38;;;23.70;99.90;;;;;;5129274;27;20303;-67
2023/08/21 05:24:12;;;;;;;8.43;7.45;;;23.80;99.90;;;;;;5106054;27;20304;-67
2023/08/21 05:26:40;;;;;;;8.07;7.32;;;23.80;99.90;;;;;;5108555;28;20291;-67
2023/08/21 05:29:06;;;;;;;7.85;7.22;;;23.80;99.90;;;;;;5108696;28;20196;-67
2023/08/21 05:31:33;;;;;;;8.57;7.63;;;23.80;99.90;;;;;;5108289;28;20206;-67
2023/08/21 05:34:00;;;;;;;9.88;7.50;;;23.90;99.90;;;;;;5108486;28;20729;-67
2023/08/21 05:36:27;;;;;;;8.40;7.60;;;23.90;99.90;;;;;;5108169;28;20336;-67
2023/08/21 05:38:54;;;;;;;8.52;7.80;;;23.90;99.90;;;;;;5108158;28;20210;-67
2023/08/21 05:41:22;;;;;;;8.38;7.68;;;24.00;99.90;;;;;;5105067;28;20206;-67
2023/08/21 05:43:49;;;;;;;7.95;7.25;;;24.00;99.90;;;;;;5087415;28;20254;-67
2023/08/21 05:46:16;;;;;;;8.07;7.30;;;24.00;99.90;;;;;;5087853;28;20230;-67
2023/08/21 05:48:43;;;;;;;8.65;7.95;;;24.00;99.90;;;;;;5087668;28;20321;-67
2023/08/21 05:51:09;;;;;;;8.80;8.10;;;24.10;99.90;;;;;;5087719;28;20662;-67
2023/08/21 05:53:36;;;;;;;8.75;7.95;;;24.10;99.90;;;;;;5087405;28;20700;-67
2023/08/21 05:56:03;;;;;;;9.70;8.07;;;24.10;99.90;;;;;;5087443;28;20227;-67
2023/08/21 05:58:32;;;;;;;8.20;7.47;;;24.10;99.90;;;;;;5087518;28;20297;-67
2023/08/21 06:01:00;;;;;;;8.98;8.18;;;24.10;99.90;;;;;;5087331;28;20238;-67
2023/08/21 06:03:26;;;;;;;8.88;8.18;;;24.10;99.90;;;;;;5087613;28;20202;-67
2023/08/21 06:05:54;;;;;;;11.32;8.07;;;24.00;99.90;;;;;;5087763;28;20299;-67
2023/08/21 06:08:21;;;;;;;9.88;9.07;;;23.90;99.90;;;;;;5087591;28;20231;-67
2023/08/21 06:10:52;;;;;;;8.82;8.02;;;23.90;99.90;;;;;;5093822;27;20325;-67
2023/08/21 06:13:19;;;;;;;8.18;7.47;;;23.90;99.90;;;;;;5107505;28;20750;-67
2023/08/21 06:15:47;;;;;;;9.18;8.40;;;23.90;99.90;;;;;;5107332;28;20244;-67
2023/08/21 06:18:14;;;;;;;8.77;8.00;;;23.90;99.90;;;;;;5107553;28;20718;-67
2023/08/21 06:20:43;;;;;;;8.52;7.72;;;23.90;99.90;;;;;;5107112;27;20292;-67
2023/08/21 06:23:11;;;;;;;8.70;8.00;;;23.90;99.90;;;;;;5107115;28;20202;-67
2023/08/21 06:25:38;;;;;;;8.63;7.82;;;23.90;99.90;;;;;;5106979;28;20210;-67
2023/08/21 06:28:06;;;;;;;9.57;8.50;;;23.90;99.90;;;;;;5107346;28;20707;-67
2023/08/21 06:30:32;;;;;;;9.75;8.38;;;23.90;99.90;;;;;;5105891;28;20290;-67
2023/08/21 06:33:01;;;;;;;9.20;8.13;;;23.90;99.90;;;;;;5107689;28;20297;-67
2023/08/21 06:35:28;;;;;;;8.52;7.70;;;24.00;99.90;;;;;;5107334;28;20292;-67
2023/08/21 06:37:55;;;;;;;8.43;7.72;;;24.00;99.90;;;;;;5112870;27;20723;-67
2023/08/21 06:40:22;;;;;;;8.70;7.72;;;24.00;99.90;;;;;;5127427;27;20212;-67
2023/08/21 06:42:50;;;;;;;8.00;7.28;;;24.10;99.90;;;;;;5127235;27;20320;-67
2023/08/21 06:45:18;;;;;;;8.00;7.28;;;24.10;99.90;;;;;;5127677;27;20209;-67
2023/08/21 06:47:45;;;;;;;8.88;7.88;;;24.20;99.90;;;;;;5127119;27;20518;-67
2023/08/21 06:50:13;;;;;;;9.48;8.57;;;24.20;99.90;;;;;;5127620;27;20312;-67
2023/08/21 06:52:40;;;;;;;8.00;7.25;;;24.20;99.90;;;;;;5127469;27;20205;-67
2023/08/21 06:55:08;;;;;;;9.27;7.18;;;24.20;99.90;;;;;;5126981;27;20244;-67
2023/08/21 06:57:35;;;;;;;7.72;7.00;;;24.10;99.90;;;;;;5127389;27;20316;-67
2023/08/21 07:00:02;;;;;;;8.18;6.70;;;24.20;99.90;;;;;;5126885;27;20282;-67
2023/08/21 07:02:28;;;;;;;7.50;6.80;;;24.20;99.90;;;;;;5126980;27;20208;-67
2023/08/21 07:04:55;;;;;;;9.52;6.68;;;24.30;99.90;;;;;;5126861;27;20576;-67
2023/08/21 07:07:24;;;;;;;10.60;6.45;;;24.30;99.90;;;;;;5126931;27;20274;-67
2023/08/21 07:09:51;;;;;;;7.18;6.47;;;24.30;99.90;;;;;;5126994;27;20205;-67
2023/08/21 07:12:18;;;;;;;9.02;6.40;;;24.40;99.90;;;;;;5107900;27;20656;-67
2023/08/21 07:14:45;;;;;;;7.50;6.25;;;24.40;99.90;;;;;;5106504;28;20242;-67
2023/08/21 07:17:12;;;;;;;6.93;6.40;;;24.40;99.90;;;;;;5106603;28;20233;-67
2023/08/21 07:19:39;;;;;;;7.03;6.18;;;24.50;99.90;;;;;;5106650;28;20293;-68
2023/08/21 07:22:06;;;;;;;6.10;5.60;;;24.60;99.90;;;;;;5106633;28;20238;-67
2023/08/21 07:24:34;;;;;;;6.30;5.70;;;24.60;99.90;;;;;;5106108;28;20298;-67
2023/08/21 07:27:01;;;;;;;7.88;6.05;;;24.60;99.90;;;;;;5106160;28;20206;-67
2023/08/21 07:29:28;;;;;;;6.53;5.93;;;24.70;99.90;;;;;;5105917;28;20206;-67
2023/08/21 07:31:55;;;;;;;6.13;5.38;;;24.80;99.90;;;;;;5106467;28;20638;-67
2023/08/21 07:34:22;;;;;;;6.93;5.28;;;24.80;99.90;;;;;;5113701;27;20233;-67
2023/08/21 07:36:48;;;;;;;6.78;5.40;;;25.00;99.90;;;;;;5126356;27;20316;-67
2023/08/21 07:39:15;;;;;;;5.30;4.72;;;25.10;99.90;;;;;;5126175;27;20292;-67
2023/08/21 07:41:43;;;;;;;6.60;4.20;;;25.10;99.90;;;;;;5112445;27;20213;-67
2023/08/21 07:44:10;;;;;;;6.32;3.90;;;25.20;99.90;;;;;;5106299;28;20779;-67
2023/08/21 07:46:37;;;;;;;4.40;3.70;;;25.20;99.90;;;;;;5105596;28;20210;-67
2023/08/21 07:49:04;;;;;;;3.47;3.17;;;25.30;99.90;;;;;;5105760;28;20238;-67
2023/08/21 07:51:31;;;;;;;4.32;3.30;;;25.20;99.90;;;;;;5105950;28;20237;-67
2023/08/21 07:53:58;;;;;;;6.07;3.55;;;25.30;99.90;;;;;;5105648;28;20214;-67
2023/08/21 07:56:25;;;;;;;7.47;3.42;;;25.30;99.90;;;;;;5105367;28;20236;-67
2023/08/21 07:58:53;;;;;;;3.83;3.15;;;25.20;99.90;;;;;;5105506;28;20297;-67
2023/08/21 08:01:21;;;;;;;3.55;3.25;;;25.30;99.90;;;;;;5105471;28;20232;-67
2023/08/21 08:03:47;;;;;;;2.85;2.53;;;25.30;99.90;;;;;;5105597;28;20210;-67
2023/08/21 08:06:13;;;;;;;5.68;2.80;;;25.30;99.90;;;;;;5105604;28;20202;-67
2023/08/21 08:08:40;;;;;;;3.05;2.60;;;25.30;99.90;;;;;;5104817;28;20648;-67
2023/08/21 08:11:07;;;;;;;5.03;2.72;;;25.30;99.90;;;;;;5105226;27;20212;-67
2023/08/21 08:13:34;;;;;;;5.38;2.58;;;25.40;99.90;;;;;;5105503;28;20209;-67
2023/08/21 08:16:02;;;;;;;3.13;2.47;;;25.40;99.90;;;;;;5105032;28;20259;-67
2023/08/21 08:18:29;;;;;;;3.90;2.67;;;25.40;99.90;;;;;;5105273;28;20206;-67
2023/08/21 08:20:56;;;;;;;2.72;2.13;;;25.40;99.90;;;;;;5105546;28;20234;-67
2023/08/21 08:23:23;;;;;;;7.10;2.65;;;25.50;99.90;;;;;;5104965;28;20234;-67
2023/08/21 08:25:50;;;;;;;2.72;2.05;;;25.60;99.90;;;;;;5105361;28;20548;-67
2023/08/21 08:28:17;;;;;;;2.97;1.70;;;25.70;99.90;;;;;;5105793;28;20220;-68
2023/08/21 08:30:44;;;;;;;2.17;1.60;;;25.80;99.90;;;;;;5094940;28;20205;-67
2023/08/21 08:33:12;;;;;;;4.32;1.67;;;25.80;99.90;;;;;;5105902;28;20210;-67
2023/08/21 08:35:40;;;;;;;1.67;1.58;;;25.90;99.90;;;;;;5105356;28;20622;-67
2023/08/21 08:38:07;;;;;;;1.55;1.45;;;26.00;99.90;;;;;;5105610;28;20612;-67
2023/08/21 08:40:35;;;;;;;1.98;1.63;;;26.10;99.90;;;;;;5105950;28;20329;-67
2023/08/21 08:43:02;;;;;;;1.75;1.30;;;26.10;99.90;;;;;;5106379;28;20264;-67
2023/08/21 08:45:31;;;;;;;10.10;1.92;;;26.10;99.90;;;;;;5105026;28;20657;-67
2023/08/21 08:48:00;;;;;;;18.23;3.28;;;26.20;99.90;;;;;;5106001;28;20209;-67
2023/08/21 08:50:30;;;;;;;5.00;1.45;;;26.20;99.90;;;;;;5105595;28;20217;-67
2023/08/21 08:52:58;;;;;;;1.17;1.08;;;26.30;99.90;;;;;;5105009;28;20952;-67
2023/08/21 08:55:26;;;;;;;4.93;1.50;;;26.30;99.90;;;;;;5108374;28;20205;-67
2023/08/21 08:57:53;;;;;;;4.03;1.40;;;26.30;99.90;;;;;;5109004;28;20239;-67
2023/08/21 09:00:21;;;;;;;1.77;1.23;;;26.30;99.90;;;;;;5108976;28;20238;-67
2023/08/21 09:02:53;;;;;;;2.08;1.30;;;26.30;99.90;;;;;;5108832;28;20271;-67
2023/08/21 09:05:20;;;;;;;2.10;1.30;;;26.30;99.90;;;;;;5108533;28;20604;-68
2023/08/21 09:08:04;;;;;;;3.33;1.65;;;26.30;99.90;;;;;;5106402;27;20659;-67
2023/08/21 09:10:31;;;;;;;3.15;1.27;;;26.30;99.90;;;;;;5092141;28;20216;-68
2023/08/21 09:13:01;;;;;;;1.60;1.50;;;26.30;99.90;;;;;;5108830;28;20256;-69
2023/08/21 09:15:30;;;;;;;3.35;1.80;;;26.40;99.90;;;;;;5108602;28;20218;-69
2023/08/21 09:17:57;;;;;;;1.73;1.10;;;26.40;99.90;;;;;;5108134;28;20325;-68
2023/08/21 09:20:24;;;;;;;2.03;1.20;;;26.50;99.90;;;;;;5108233;28;20254;-68
2023/08/21 09:22:56;;;;;;;2.13;1.10;;;26.60;99.90;;;;;;5108076;28;20731;-69
2023/08/21 09:25:25;;;;;;;2.47;1.27;;;26.70;99.90;;;;;;5108460;27;20310;-66
2023/08/21 09:27:54;;;;;;;2.42;1.42;;;26.70;99.90;;;;;;5108401;28;20662;-66
2023/08/21 09:30:21;;;;;;;6.80;2.00;;;26.70;99.90;;;;;;5098946;28;20559;-66
2023/08/21 09:32:56;;;;;;;5.25;1.70;;;26.70;99.90;;;;;;5087719;28;20231;-66
2023/08/21 09:35:26;;;;;;;1.63;1.40;;;26.80;99.90;;;;;;5087678;28;20275;-69
2023/08/21 09:37:53;;;;;;;2.50;1.55;;;26.90;99.90;;;;;;5087166;28;20325;-68
2023/08/21 09:40:22;;;;;;;3.80;1.52;;;26.90;99.90;;;;;;5090492;28;20202;-69
2023/08/21 09:42:54;;;;;;;2.00;1.27;;;26.90;99.90;;;;;;5108207;28;20226;-69
2023/08/21 09:45:22;;;;;;;2.72;1.40;;;26.80;99.90;;;;;;5108035;28;20198;-69
2023/08/21 09:47:49;;;;;;;1.80;1.30;;;26.80;99.90;;;;;;5107924;28;20210;-66
2023/08/21 09:50:16;;;;;;;2.50;1.55;;;26.80;99.90;;;;;;5108053;28;20209;-67
2023/08/21 09:52:44;;;;;;;3.00;1.20;;;26.90;99.90;;;;;;5107932;28;20210;-66
2023/08/21 09:55:11;;;;;;;4.43;1.65;;;27.00;99.90;;;;;;5108096;28;20301;-67
2023/08/21 09:57:40;;;;;;;3.72;1.50;;;27.00;99.90;;;;;;5107606;28;20236;-66
2023/08/21 10:00:15;;;;;;;1.80;1.40;;;27.10;99.90;;;;;;5107627;28;20602;-66
2023/08/21 10:02:45;;;;;;;1.80;1.40;;;27.10;99.90;;;;;;5108107;28;20193;-67
2023/08/21 10:05:13;;;;;;;2.67;1.38;;;27.30;99.90;;;;;;5092872;28;20195;-66
2023/08/21 10:07:41;;;;;;;2.60;1.50;;;27.30;99.90;;;;;;5087453;28;20238;-67
2023/08/21 10:10:10;;;;;;;2.70;1.38;;;27.40;99.90;;;;;;5087992;28;20784;-67
2023/08/21 10:12:37;;;;;;;2.15;1.08;;;27.50;99.90;;;;;;5107599;28;20208;-67
2023/08/21 10:15:08;;;;;;;3.70;1.70;;;27.60;99.90;;;;;;5107546;28;20676;-67
2023/08/21 10:17:35;;;;;;;1.35;1.13;;;27.70;99.90;;;;;;5107438;28;20218;-67
2023/08/21 10:20:04;;;;;;;3.85;1.20;;;27.80;99.90;;;;;;5107556;28;20314;-66
2023/08/21 10:22:49;;;;;;;2.03;1.20;;;27.80;99.80;;;;;;5099478;28;20208;-68
2023/08/21 10:25:20;;;;;;;2.38;1.10;;;27.80;99.60;;;;;;5087591;28;20619;-68
2023/08/21 10:27:47;;;;;;;5.05;1.70;;;27.80;99.70;;;;;;5087345;28;20231;-69
2023/08/21 10:30:20;;;;;;;3.92;1.60;;;27.70;99.80;;;;;;5087067;28;20206;-69
2023/08/21 10:32:49;;;;;;;2.42;1.35;;;27.60;99.90;;;;;;5086750;28;20286;-68
2023/08/21 10:35:17;;;;;;;3.92;1.50;;;27.60;99.80;;;;;;5087131;28;20238;-69
2023/08/21 10:38:06;;;;;;;4.07;1.60;;;27.50;99.90;;;;;;5086490;28;20740;-68
2023/08/21 10:40:34;;;;;;;2.17;1.45;;;27.60;99.90;;;;;;5095316;27;20320;-69
2023/08/21 10:43:02;;;;;;;2.55;1.50;;;27.70;99.90;;;;;;5128202;27;20276;-69
2023/08/21 10:45:32;;;;;;;2.05;1.25;;;27.70;99.90;;;;;;5127795;27;20266;-67
2023/08/21 10:47:59;;;;;;;2.67;1.40;;;27.80;99.90;;;;;;5128021;27;20229;-68
2023/08/21 10:50:27;;;;;;;3.50;1.33;;;27.80;99.90;;;;;;5127147;27;20213;-68
2023/08/21 10:52:55;;;;;;;3.35;1.27;;;27.80;99.90;;;;;;5127188;27;20672;-68
2023/08/21 10:55:22;;;;;;;2.67;1.35;;;27.90;99.90;;;;;;5127653;27;20294;-68
2023/08/21 10:57:50;;;;;;;2.38;1.25;;;27.90;99.90;;;;;;5127767;27;20324;-68
2023/08/21 11:00:18;;;;;;;1.73;1.23;;;27.90;99.90;;;;;;5114610;27;20341;-68
2023/08/21 11:02:47;;;;;;;2.20;1.60;;;27.80;99.90;;;;;;5086339;28;21057;-68
2023/08/21 11:05:15;;;;;;;2.58;1.50;;;27.80;99.90;;;;;;5086537;28;20209;-68
2023/08/21 11:07:44;;;;;;;2.10;1.33;;;27.80;99.90;;;;;;5086013;28;20683;-67
2023/08/21 11:10:14;;;;;;;1.38;1.10;;;27.70;99.90;;;;;;5086541;28;20217;-68
2023/08/21 11:12:50;;;;;;;2.80;1.10;;;27.70;99.90;;;;;;5086421;28;20206;-68
2023/08/21 11:15:17;;;;;;;2.88;1.05;;;27.70;99.90;;;;;;5086662;28;20293;-67
2023/08/21 11:17:54;;;;;;;1.60;1.23;;;27.80;99.90;;;;;;5089615;28;20226;-67
2023/08/21 11:20:21;;;;;;;3.88;1.15;;;27.80;99.90;;;;;;5106871;27;20289;-68
2023/08/21 11:22:49;;;;;;;2.05;1.17;;;27.80;99.70;;;;;;5086361;28;20210;-67
2023/08/21 11:25:16;;;;;;;2.17;1.30;;;27.80;99.80;;;;;;5086204;28;20706;-68
2023/08/21 11:27:43;;;;;;;2.25;0.90;;;27.80;99.90;;;;;;5086490;28;20207;-68
2023/08/21 11:30:12;;;;;;;3.00;1.17;;;27.80;99.50;;;;;;5086219;28;20290;-68
2023/08/21 11:32:40;;;;;;;1.38;1.20;;;27.80;99.90;;;;;;5085653;28;20209;-68
2023/08/21 11:35:09;;;;;;;2.30;1.50;;;27.90;99.90;;;;;;5086446;28;20701;-67
2023/08/21 11:37:44;;;;;;;1.58;1.20;;;28.00;99.90;;;;;;5085446;28;20622;-68
2023/08/21 11:40:11;;;;;;;1.85;1.48;;;27.90;99.60;;;;;;5085759;28;20289;-68
2023/08/21 11:42:38;;;;;;;2.55;1.20;;;27.90;99.50;;;;;;5085481;28;20494;-68
2023/08/21 11:45:06;;;;;;;1.50;1.10;;;27.90;99.80;;;;;;5085604;28;20207;-68
2023/08/21 11:47:36;;;;;;;1.73;1.30;;;27.90;99.70;;;;;;5085635;28;20256;-68
2023/08/21 11:50:08;;;;;;;1.40;1.30;;;27.90;99.90;;;;;;5085794;28;20608;-68
2023/08/21 11:52:38;;;;;;;2.30;1.38;;;27.90;99.90;;;;;;5085349;28;20238;-68
2023/08/21 11:55:09;;;;;;;2.28;1.40;;;27.80;99.70;;;;;;5085635;28;20247;-68
2023/08/21 11:57:36;;;;;;;3.22;1.83;;;27.80;99.60;;;;;;5071563;28;20990;-68
2023/08/21 12:00:06;;;;;;;2.47;1.02;;;27.70;99.90;;;;;;5065036;28;20239;-68
2023/08/21 12:02:33;;;;;;;3.85;1.77;;;27.70;99.90;;;;;;5065145;28;20555;-68
2023/08/21 12:05:04;;;;;;;4.65;2.03;;;27.70;99.60;;;;;;5064888;28;20670;-68
2023/08/21 12:07:33;;;;;;;5.30;1.70;;;27.70;99.80;;;;;;5064836;28;20199;-68
2023/08/21 12:09:59;;;;;;;4.55;1.63;;;27.70;99.90;;;;;;5065240;28;20298;-68
2023/08/21 12:12:27;;;;;;;3.10;1.55;;;27.70;99.90;;;;;;5084874;28;20297;-68
2023/08/21 12:14:54;;;;;;;1.45;1.20;;;27.70;99.90;;;;;;5085550;28;20313;-68
2023/08/21 12:17:20;;;;;;;3.55;1.67;;;27.60;99.90;;;;;;5084565;28;20677;-68
2023/08/21 12:19:47;;;;;;;1.75;1.25;;;27.60;99.90;;;;;;5084575;28;20669;-68
2023/08/21 12:22:14;;;;;;;5.50;1.40;;;27.60;99.90;;;;;;5085103;28;20289;-68
2023/08/21 12:24:42;;;;;;;2.58;1.23;;;27.60;99.90;;;;;;5085083;28;20206;-68
2023/08/21 12:27:09;;;;;;;2.25;1.48;;;27.60;99.90;;;;;;5084949;28;20761;-68
2023/08/21 12:29:36;;;;;;;2.13;1.50;;;27.60;99.90;;;;;;5084218;28;20717;-68
2023/08/21 12:32:03;;;;;;;1.55;1.40;;;27.60;99.90;;;;;;5084881;28;20656;-68
2023/08/21 12:34:30;;;;;;;2.05;1.55;;;27.70;99.90;;;;;;5084602;28;20818;-68
2023/08/21 12:36:57;;;;;;;1.67;1.40;;;27.80;99.90;;;;;;5084363;28;20298;-68
2023/08/21 12:39:24;;;;;;;1.58;1.40;;;28.00;99.90;;;;;;5084175;28;20230;-68
2023/08/21 12:41:52;;;;;;;3.15;1.40;;;28.10;99.90;;;;;;5084941;28;20215;-68
2023/08/21 12:44:19;;;;;;;2.75;1.35;;;28.30;99.90;;;;;;5080669;28;20207;-68
2023/08/21 12:46:46;;;;;;;1.48;1.38;;;28.30;99.90;;;;;;5078430;28;20814;-68
2023/08/21 12:49:13;;;;;;;4.45;1.30;;;28.40;99.50;;;;;;5078924;28;20298;-68